Terminal Aerodrome Forecast
Issued by NWS Shreveport, LA

Home | Current Version | Previous Version | Text Only | Print | Product List | Glossary On
Versions: 1 2 3 4 5 6 7 8 9 10 11 12 13 14 15 16
000
FTUS44 KSHV 260523
TAFTXK
TAF
KTXK 260523Z 2606/2706 11004KT P6SM SCT150 BKN250
     FM260900 VRB03KT P6SM BKN050
     FM261200 08003KT P6SM SCT060 BKN120
      TEMPO 2612/2614 07005KT 5SM BR BKN035
     FM261700 09006KT P6SM BKN045 BKN120
     FM262100 07006KT P6SM VCTS BKN060CB
     FM270000 10005KT P6SM BKN250=

USA.gov is the U.S. government's official web portal to all federal, state and local government web resources and services.